Time;durP1;ratioP1;P1;durP2;ratioP2;P2;SDS_P1;SDS_P2;PMS_P1;PMS_P2;Temp;Humidity;BMP_temperature;BMP_pressure;BME280_temperature;BME280_humidity;BME280_pressure;Samples;Min_cycle;Max_cycle;Signal;HPM_P1;HPM_P2
2022/07/21 00:02:12;;;;;;;;;16.80;14.00;;;;;21.28;63.56;100037.00;5118711;28;9489;-62
2022/07/21 00:04:40;;;;;;;;;13.80;12.80;;;;;21.23;64.04;100039.44;5118190;28;8844;-63
2022/07/21 00:07:08;;;;;;;;;12.00;11.60;;;;;21.19;64.42;100027.28;5117676;28;8847;-67
2022/07/21 00:09:36;;;;;;;;;10.60;10.60;;;;;21.17;63.44;100011.22;5117525;28;8823;-61
2022/07/21 00:12:05;;;;;;;;;15.20;13.60;;;;;21.16;63.95;100000.56;5117807;28;8920;-62
2022/07/21 00:14:32;;;;;;;;;15.00;14.00;;;;;21.15;63.80;100009.72;5118337;28;8954;-64
2022/07/21 00:17:02;;;;;;;;;14.40;14.20;;;;;21.11;63.77;100019.28;5118536;28;8823;-63
2022/07/21 00:19:30;;;;;;;;;14.00;12.60;;;;;21.05;63.93;100014.59;5109115;28;8988;-63
2022/07/21 00:21:58;;;;;;;;;5.40;4.00;;;;;20.99;64.10;100015.34;5099322;28;8969;-63
2022/07/21 00:24:25;;;;;;;;;13.80;11.60;;;;;20.96;64.27;100023.84;5099063;28;8818;-63
2022/07/21 00:26:54;;;;;;;;;17.40;17.00;;;;;20.93;63.93;100033.19;5099009;28;8865;-62
2022/07/21 00:29:21;;;;;;;;;19.40;17.40;;;;;20.87;64.51;100038.50;5115338;28;8955;-63
2022/07/21 00:31:49;;;;;;;;;14.60;14.00;;;;;20.82;64.19;100041.69;5136865;27;8830;-63
2022/07/21 00:34:17;;;;;;;;;14.00;13.20;;;;;20.79;64.23;100033.97;5139605;27;8834;-63
2022/07/21 00:36:45;;;;;;;;;15.80;14.20;;;;;20.77;64.28;100037.06;5139616;27;8834;-64
2022/07/21 00:39:13;;;;;;;;;14.00;13.80;;;;;20.77;64.12;100040.59;5139269;27;8976;-63
2022/07/21 00:41:41;;;;;;;;;17.60;16.60;;;;;20.75;64.19;100046.16;5139568;27;8838;-63
2022/07/21 00:44:08;;;;;;;;;11.40;10.00;;;;;20.72;64.45;100040.31;5139084;27;8957;-62
2022/07/21 00:46:37;;;;;;;;;15.40;15.00;;;;;20.75;64.69;100048.06;5139448;27;8830;-63
2022/07/21 00:49:05;;;;;;;;;16.00;15.80;;;;;20.77;63.97;100037.88;5138045;27;8841;-63
2022/07/21 00:51:32;;;;;;;;;18.20;17.20;;;;;20.78;63.76;100031.44;5138987;27;8833;-63
2022/07/21 00:54:00;;;;;;;;;22.80;18.40;;;;;20.80;64.13;100042.94;5138251;27;8826;-64
2022/07/21 00:56:28;;;;;;;;;20.80;18.80;;;;;20.81;63.87;100045.44;5138242;27;8826;-62
2022/07/21 00:58:56;;;;;;;;;18.80;16.40;;;;;20.82;63.66;100051.72;5125124;27;8897;-63
2022/07/21 01:01:24;;;;;;;;;20.20;17.20;;;;;20.83;63.58;100056.09;5118413;28;8848;-63
2022/07/21 01:03:52;;;;;;;;;16.40;16.20;;;;;20.82;63.68;100059.84;5118082;28;8823;-63
2022/07/21 01:06:20;;;;;;;;;21.40;18.40;;;;;20.80;64.05;100053.78;5117800;28;8958;-63
2022/07/21 01:08:48;;;;;;;;;23.00;19.00;;;;;20.78;64.02;100058.50;5117810;28;8828;-64
2022/07/21 01:11:16;;;;;;;;;19.20;18.80;;;;;20.78;64.09;100053.94;5118412;28;8843;-64
2022/07/21 01:13:44;;;;;;;;;19.20;18.80;;;;;20.79;64.02;100057.47;5118423;28;8898;-63
2022/07/21 01:16:12;;;;;;;;;19.60;17.40;;;;;20.78;64.08;100061.22;5117337;28;8958;-64
2022/07/21 01:18:40;;;;;;;;;15.60;15.00;;;;;20.77;64.17;100054.13;5117955;28;8844;-64
2022/07/21 01:21:08;;;;;;;;;20.00;18.60;;;;;20.77;63.93;100054.13;5118012;28;8832;-63
2022/07/21 01:23:36;;;;;;;;;22.20;19.20;;;;;20.77;63.82;100053.28;5118760;28;8836;-63
2022/07/21 01:26:04;;;;;;;;;25.80;23.80;;;;;20.78;64.00;100058.50;5118096;28;9555;-63
2022/07/21 01:28:31;;;;;;;;;26.80;23.80;;;;;20.75;63.68;100059.72;5124980;27;8902;-63
2022/07/21 01:30:59;;;;;;;;;23.60;21.80;;;;;20.74;64.29;100051.78;5138269;27;8952;-64
2022/07/21 01:33:27;;;;;;;;;22.40;20.40;;;;;20.67;64.30;100043.53;5138647;27;8834;-63
2022/07/21 01:35:55;;;;;;;;;17.40;17.00;;;;;20.65;64.15;100033.94;5138798;27;8948;-63
2022/07/21 01:43:53;;;;;;;;;20.40;15.20;;;;;20.59;64.09;100037.38;5139249;27;8852;-64
2022/07/21 01:46:22;;;;;;;;;19.20;19.00;;;;;20.56;63.97;100048.56;5139226;27;9533;-63
2022/07/21 01:48:49;;;;;;;;;17.60;15.20;;;;;20.52;64.38;100044.56;5138637;27;8834;-63
2022/07/21 01:51:18;;;;;;;;;14.20;13.40;;;;;20.47;64.47;100046.94;5138493;27;8917;-63
2022/07/21 01:53:45;;;;;;;;;21.20;15.20;;;;;20.42;64.89;100049.38;5138903;27;8822;-63
2022/07/21 01:56:14;;;;;;;;;9.60;9.20;;;;;20.36;65.23;100047.41;5138385;27;8830;-64
2022/07/21 01:58:41;;;;;;;;;11.00;11.00;;;;;20.27;65.42;100051.19;5134016;27;8946;-62
2022/07/21 02:01:09;;;;;;;;;13.20;10.80;;;;;20.20;65.61;100068.31;5117447;28;8844;-63
2022/07/21 02:03:37;;;;;;;;;13.80;12.00;;;;;20.11;66.08;100069.41;5117255;28;8820;-63
2022/07/21 02:06:05;;;;;;;;;18.00;17.20;;;;;20.03;65.89;100058.59;5116872;28;8862;-63
2022/07/21 02:08:33;;;;;;;;;15.60;13.60;;;;;19.92;66.96;100054.44;5116783;28;8835;-62
2022/07/21 02:11:01;;;;;;;;;14.40;13.80;;;;;19.76;66.85;100059.09;5116730;28;8840;-62
2022/07/21 02:13:28;;;;;;;;;11.20;9.80;;;;;19.64;67.57;100064.06;5116449;28;9652;-62
2022/07/21 02:15:56;;;;;;;;;16.20;13.20;;;;;19.55;67.51;100061.56;5117231;28;8820;-62
2022/07/21 02:18:26;;;;;;;;;12.80;10.60;;;;;19.43;68.10;100071.91;5116593;28;8830;-64
2022/07/21 02:20:54;;;;;;;;;14.20;13.00;;;;;19.32;68.51;100064.22;5118007;27;8828;-62
2022/07/21 02:23:21;;;;;;;;;14.60;10.00;;;;;19.19;69.15;100072.00;5116568;28;8946;-63
2022/07/21 02:25:49;;;;;;;;;12.80;10.80;;;;;19.09;69.39;100076.75;5117179;28;8838;-62
2022/07/21 02:28:17;;;;;;;;;9.80;9.00;;;;;19.03;69.38;100077.44;5115933;28;8832;-64
2022/07/21 02:30:45;;;;;;;;;11.60;11.00;;;;;19.00;69.18;100083.19;5105367;28;8870;-64
2022/07/21 02:33:13;;;;;;;;;10.00;10.00;;;;;18.98;69.45;100087.88;5094157;28;8838;-64
2022/07/21 02:35:41;;;;;;;;;9.40;9.00;;;;;18.92;69.15;100085.91;5095826;28;9503;-63
2022/07/21 02:38:09;;;;;;;;;12.00;11.20;;;;;18.87;69.48;100082.84;5095977;28;8834;-64
2022/07/21 02:40:37;;;;;;;;;10.20;9.40;;;;;18.83;69.40;100084.19;5095642;28;8830;-62
2022/07/21 02:43:05;;;;;;;;;8.80;8.00;;;;;18.79;69.54;100099.06;5096788;28;8838;-63
2022/07/21 02:45:32;;;;;;;;;12.40;12.00;;;;;18.75;69.69;100078.81;5096734;28;8952;-63
2022/07/21 02:48:02;;;;;;;;;10.00;10.00;;;;;18.70;70.05;100078.50;5096695;28;8830;-63
2022/07/21 02:50:30;;;;;;;;;9.40;9.00;;;;;18.66;69.75;100077.16;5106350;28;8946;-64
2022/07/21 02:52:58;;;;;;;;;9.00;6.40;;;;;18.65;69.69;100071.91;5116746;28;8855;-65
2022/07/21 02:55:26;;;;;;;;;3.00;3.00;;;;;18.63;69.95;100072.09;5116379;28;8847;-63
2022/07/21 02:57:54;;;;;;;;;9.80;8.80;;;;;18.63;69.58;100080.19;5114809;28;8828;-64
2022/07/21 03:00:22;;;;;;;;;12.75;12.00;;;;;18.62;70.11;100089.31;5116440;28;8840;-63
2022/07/21 03:02:49;;;;;;;;;12.20;10.40;;;;;18.59;69.84;100068.03;5116542;28;8974;-65
2022/07/21 03:05:17;;;;;;;;;9.20;8.60;;;;;18.56;69.83;100057.59;5115450;28;9773;-65
2022/07/21 03:07:47;;;;;;;;;10.00;10.00;;;;;18.60;69.78;100060.81;5116535;28;8942;-63
2022/07/21 03:10:14;;;;;;;;;6.40;6.20;;;;;18.62;70.17;100073.13;5116825;28;8958;-65
2022/07/21 03:12:42;;;;;;;;;9.75;9.00;;;;;18.60;69.72;100083.22;5117029;28;9505;-62
2022/07/21 03:15:10;;;;;;;;;6.80;6.80;;;;;18.58;70.46;100076.31;5115508;28;8964;-62
2022/07/21 03:17:38;;;;;;;;;10.50;9.75;;;;;18.56;69.86;100079.19;5100166;28;8844;-62
2022/07/21 03:20:06;;;;;;;;;10.20;9.00;;;;;18.56;69.98;100081.03;5100232;28;8826;-62
2022/07/21 03:22:34;;;;;;;;;10.00;9.80;;;;;18.56;70.52;100079.19;5100041;28;8911;-61
2022/07/21 03:25:02;;;;;;;;;8.60;8.60;;;;;18.59;69.96;100076.13;5099874;28;9488;-63
2022/07/21 03:27:29;;;;;;;;;10.40;9.20;;;;;18.61;70.32;100079.50;5099425;28;8892;-62
2022/07/21 03:29:57;;;;;;;;;13.00;12.80;;;;;18.62;70.29;100083.91;5100659;28;8872;-62
2022/07/21 03:32:25;;;;;;;;;15.40;12.40;;;;;18.64;69.95;100078.31;5100541;28;8869;-63
2022/07/21 03:34:53;;;;;;;;;14.80;11.60;;;;;18.63;70.00;100072.09;5100204;28;8810;-63
2022/07/21 03:37:21;;;;;;;;;10.00;10.00;;;;;18.67;70.17;100068.03;5099674;28;8968;-62
2022/07/21 03:39:49;;;;;;;;;11.00;9.75;;;;;18.69;70.00;100063.34;5099998;28;8920;-64
2022/07/21 03:42:16;;;;;;;;;11.50;11.50;;;;;18.74;70.24;100063.63;5100076;28;8865;-63
2022/07/21 03:44:44;;;;;;;;;7.60;6.80;;;;;18.77;69.73;100063.31;5100857;28;8910;-63
2022/07/21 03:47:12;;;;;;;;;12.40;11.60;;;;;18.82;69.78;100069.03;5100201;28;9475;-64
2022/07/21 03:49:40;;;;;;;;;12.00;10.00;;;;;18.86;69.83;100059.59;5100461;28;8914;-63
2022/07/21 03:52:08;;;;;;;;;11.40;10.40;;;;;18.90;69.42;100055.50;5099317;28;8961;-63
2022/07/21 03:54:36;;;;;;;;;9.60;9.00;;;;;18.93;69.17;100047.09;5098693;28;8830;-63
2022/07/21 03:57:04;;;;;;;;;9.60;9.40;;;;;18.97;69.39;100048.41;5100202;28;8826;-64
2022/07/21 03:59:32;;;;;;;;;13.00;12.40;;;;;19.02;68.99;100027.16;5099824;28;8842;-63
2022/07/21 04:01:59;;;;;;;;;9.60;9.00;;;;;19.09;69.51;100020.03;5099369;28;8920;-64
2022/07/21 04:04:27;;;;;;;;;7.40;5.80;;;;;19.12;69.37;100011.59;5098788;28;8883;-64
2022/07/21 04:06:55;;;;;;;;;13.00;12.20;;;;;19.15;68.99;100008.56;5098564;28;8952;-63
2022/07/21 04:09:23;;;;;;;;;8.60;8.20;;;;;19.16;69.12;99996.72;5097903;28;8917;-63
2022/07/21 04:11:50;;;;;;;;;9.00;8.20;;;;;19.17;69.15;99984.06;5098456;28;8834;-66
2022/07/21 04:14:18;;;;;;;;;14.60;11.60;;;;;19.20;68.46;99973.78;5097446;28;8826;-64
2022/07/21 04:16:46;;;;;;;;;12.40;10.20;;;;;19.22;69.09;99966.38;5115221;28;8889;-64
2022/07/21 04:19:14;;;;;;;;;11.80;10.00;;;;;19.25;68.59;99963.28;5118790;28;8819;-61
2022/07/21 04:21:42;;;;;;;;;13.20;10.20;;;;;19.29;68.75;99972.75;5119428;28;9556;-64
2022/07/21 04:24:10;;;;;;;;;10.40;9.80;;;;;19.33;68.38;99975.91;5118761;28;8844;-63
2022/07/21 04:26:38;;;;;;;;;6.60;4.60;;;;;19.33;68.81;99990.25;5118966;28;8828;-61
2022/07/21 04:29:06;;;;;;;;;7.80;7.00;;;;;19.32;68.99;99990.44;5118456;28;8971;-62
2022/07/21 04:31:34;;;;;;;;;10.60;9.80;;;;;19.29;69.14;100015.09;5135380;27;8940;-61
2022/07/21 04:34:02;;;;;;;;;9.60;9.60;;;;;19.27;68.99;100011.75;5139048;27;8930;-64
2022/07/21 04:36:30;;;;;;;;;11.00;10.40;;;;;19.25;69.31;100014.59;5138905;27;8918;-63
2022/07/21 04:38:58;;;;;;;;;13.20;10.00;;;;;19.21;69.47;100007.84;5139022;27;8828;-64
2022/07/21 04:41:25;;;;;;;;;12.20;12.00;;;;;19.21;69.35;100009.72;5139042;27;8946;-63
2022/07/21 04:43:53;;;;;;;;;14.20;12.00;;;;;19.22;69.50;100006.00;5139539;27;8845;-67
2022/07/21 04:46:21;;;;;;;;;8.40;8.40;;;;;19.21;68.94;100010.56;5122297;27;8824;-65
2022/07/21 04:48:50;;;;;;;;;4.20;3.40;;;;;19.22;69.28;100014.97;5118676;28;9535;-62
2022/07/21 04:51:18;;;;;;;;;10.40;9.40;;;;;19.25;69.41;100019.16;5118196;28;8836;-62
2022/07/21 04:53:46;;;;;;;;;12.20;9.80;;;;;19.29;68.88;100015.97;5118126;28;8835;-63
2022/07/21 04:56:13;;;;;;;;;10.00;9.80;;;;;19.33;68.75;100011.88;5117695;28;8836;-68
2022/07/21 04:58:42;;;;;;;;;9.20;9.20;;;;;19.38;68.86;100009.50;5117098;27;8824;-65
2022/07/21 05:01:10;;;;;;;;;7.60;6.60;;;;;19.43;68.73;100020.59;5117167;28;8860;-63
2022/07/21 05:03:37;;;;;;;;;10.20;9.60;;;;;19.48;68.74;100018.22;5117162;28;8860;-62
2022/07/21 05:06:05;;;;;;;;;12.80;9.20;;;;;19.52;69.00;100021.41;5116948;28;8820;-64
2022/07/21 05:08:33;;;;;;;;;11.80;10.60;;;;;19.54;69.00;100027.47;5116876;28;8924;-64
2022/07/21 05:11:01;;;;;;;;;15.60;11.80;;;;;19.56;68.77;100031.69;5116808;28;8836;-62
2022/07/21 05:13:29;;;;;;;;;11.20;9.00;;;;;19.58;69.03;100029.63;5117086;28;8982;-62
2022/07/21 05:15:56;;;;;;;;;8.40;8.00;;;;;19.53;69.68;100029.34;5129276;27;8825;-64
2022/07/21 05:18:26;;;;;;;;;12.40;10.40;;;;;19.51;69.77;100035.94;5137520;27;8845;-64
2022/07/21 05:20:54;;;;;;;;;13.40;12.80;;;;;19.47;69.57;100032.75;5137544;27;8830;-63
2022/07/21 05:23:22;;;;;;;;;12.60;12.20;;;;;19.47;70.03;100029.19;5138155;27;8810;-63
2022/07/21 05:25:50;;;;;;;;;15.00;15.00;;;;;19.46;70.43;100028.38;5138286;27;8890;-64
2022/07/21 05:28:20;;;;;;;;;15.20;12.80;;;;;19.47;70.33;100030.03;5138243;27;8845;-62
2022/07/21 05:30:47;;;;;;;;;15.80;15.40;;;;;19.49;70.48;100022.59;5137804;27;8864;-62
2022/07/21 05:33:15;;;;;;;;;15.60;15.20;;;;;19.52;70.24;100026.81;5137547;27;8830;-64
2022/07/21 05:35:43;;;;;;;;;12.25;8.25;;;;;19.59;70.28;100033.19;5137168;27;8934;-64
2022/07/21 05:38:11;;;;;;;;;16.40;14.00;;;;;19.72;69.73;100026.19;5137779;27;8845;-64
2022/07/21 05:40:39;;;;;;;;;17.20;14.80;;;;;19.79;69.86;100029.84;5138005;27;8832;-64
2022/07/21 05:43:06;;;;;;;;;18.20;17.60;;;;;19.82;70.31;100034.91;5137633;27;8833;-63
2022/07/21 05:45:34;;;;;;;;;22.20;19.40;;;;;19.83;70.52;100035.75;5125524;27;8880;-64
2022/07/21 05:48:02;;;;;;;;;17.40;16.60;;;;;19.83;70.27;100039.31;5117451;28;8921;-63
2022/07/21 05:50:30;;;;;;;;;20.80;18.60;;;;;19.86;70.40;100038.94;5117142;28;8882;-63
2022/07/21 05:52:58;;;;;;;;;15.40;13.00;;;;;19.91;70.32;100038.41;5116801;28;8924;-63
2022/07/21 05:55:25;;;;;;;;;21.80;19.40;;;;;19.97;70.23;100043.09;5117177;28;8844;-64
2022/07/21 05:57:54;;;;;;;;;20.20;16.60;;;;;20.03;70.48;100034.28;5117131;28;8839;-63
2022/07/21 06:00:22;;;;;;;;;21.40;17.00;;;;;20.11;70.32;100042.34;5116065;28;8867;-64
2022/07/21 06:02:50;;;;;;;;;24.40;22.40;;;;;20.23;70.70;100039.03;5115915;28;9549;-63
2022/07/21 06:05:18;;;;;;;;;22.20;19.40;;;;;20.33;70.32;100036.91;5114278;28;8820;-63
2022/07/21 06:07:48;;;;;;;;;19.80;18.40;;;;;20.43;69.90;100037.53;5113973;28;8828;-63
2022/07/21 06:10:15;;;;;;;;;22.20;19.40;;;;;20.49;69.78;100025.13;5114006;28;8832;-63
2022/07/21 06:12:49;;;;;;;;;23.40;18.20;;;;;20.48;69.92;100031.56;5113746;28;8928;-64
2022/07/21 06:15:17;;;;;;;;;16.00;15.80;;;;;20.47;70.03;100035.31;5122743;27;8834;-63
2022/07/21 06:17:45;;;;;;;;;17.40;17.00;;;;;20.59;69.83;100034.69;5135625;27;9752;-63
2022/07/21 06:20:12;;;;;;;;;18.20;15.60;;;;;20.73;69.42;100036.56;5134953;27;8841;-63
2022/07/21 06:22:40;;;;;;;;;26.00;20.80;;;;;20.85;69.24;100035.94;5134973;27;8838;-63
2022/07/21 06:25:08;;;;;;;;;18.40;16.60;;;;;20.95;69.00;100041.13;5135899;27;8841;-63
2022/07/21 06:27:36;;;;;;;;;18.60;16.40;;;;;20.98;68.64;100040.75;5136008;27;8830;-63
2022/07/21 06:30:03;;;;;;;;;22.40;18.60;;;;;20.96;69.34;100048.22;5135770;27;8876;-63
2022/07/21 06:32:31;;;;;;;;;20.40;17.60;;;;;20.92;69.36;100052.31;5136604;27;8845;-63
2022/07/21 06:34:59;;;;;;;;;20.40;17.20;;;;;20.89;69.24;100053.50;5136461;27;8842;-63
2022/07/21 06:37:32;;;;;;;;;19.60;17.00;;;;;20.96;69.09;100053.63;5136442;27;8899;-64
2022/07/21 06:40:00;;;;;;;;;17.80;17.00;;;;;21.07;69.16;100054.00;5136635;27;8837;-64
2022/07/21 06:42:28;;;;;;;;;17.20;17.00;;;;;21.14;68.84;100048.69;5136028;27;8830;-62
2022/07/21 06:44:55;;;;;;;;;17.80;15.20;;;;;21.20;68.15;100051.47;5129262;27;8834;-62
2022/07/21 06:47:24;;;;;;;;;14.20;12.80;;;;;21.26;68.60;100055.31;5114107;28;8860;-64
2022/07/21 06:49:51;;;;;;;;;19.60;18.60;;;;;21.20;68.74;100056.06;5115221;28;8862;-63
2022/07/21 06:52:19;;;;;;;;;18.00;16.60;;;;;21.11;69.06;100047.19;5114466;28;8836;-63
2022/07/21 06:54:47;;;;;;;;;19.20;16.80;;;;;21.03;69.19;100054.56;5114357;28;8964;-63
2022/07/21 06:57:16;;;;;;;;;16.00;15.20;;;;;20.95;69.19;100054.66;5115283;28;8896;-64
2022/07/21 06:59:44;;;;;;;;;22.40;20.00;;;;;20.88;69.68;100062.66;5115410;28;8875;-64
2022/07/21 07:02:11;;;;;;;;;14.80;13.80;;;;;20.79;69.57;100065.59;5115386;28;8851;-63
2022/07/21 07:04:40;;;;;;;;;19.40;17.20;;;;;20.74;70.09;100062.63;5115461;28;8824;-63
2022/07/21 07:07:09;;;;;;;;;8.80;8.60;;;;;20.69;70.07;100072.31;5115752;28;8840;-63
2022/07/21 07:09:36;;;;;;;;;18.80;17.20;;;;;20.64;70.59;100064.72;5116126;28;8847;-64
2022/07/21 07:12:05;;;;;;;;;20.80;17.80;;;;;20.66;70.67;100067.25;5115386;28;8851;-63
2022/07/21 07:14:53;;;;;;;;;20.20;16.80;;;;;20.66;70.66;100065.41;5120080;27;8818;-63
2022/07/21 07:17:21;;;;;;;;;19.20;16.60;;;;;20.69;70.16;100062.31;5135909;27;8825;-63
2022/07/21 07:19:49;;;;;;;;;15.40;13.00;;;;;20.71;70.58;100062.97;5135964;27;8864;-63
2022/07/21 07:22:17;;;;;;;;;8.80;8.40;;;;;20.76;70.55;100063.25;5135149;27;9499;-64
2022/07/21 07:24:45;;;;;;;;;27.60;18.20;;;;;20.86;70.14;100071.97;5133808;27;9506;-63
2022/07/21 07:27:13;;;;;;;;;18.60;17.20;;;;;21.03;69.34;100073.53;5135325;27;8826;-64
2022/07/21 07:29:41;;;;;;;;;20.80;20.00;;;;;21.26;69.01;100069.69;5123675;28;8862;-63
2022/07/21 07:32:08;;;;;;;;;13.60;12.40;;;;;21.50;69.01;100068.56;5094819;28;8829;-63
2022/07/21 07:34:36;;;;;;;;;19.00;17.00;;;;;21.77;68.17;100066.03;5094678;28;8910;-64
2022/07/21 07:37:04;;;;;;;;;12.00;10.40;;;;;22.04;67.54;100067.19;5094858;28;8838;-63
2022/07/21 07:39:31;;;;;;;;;17.60;14.00;;;;;22.30;67.01;100059.34;5095591;28;8849;-63
2022/07/21 07:41:59;;;;;;;;;14.20;12.00;;;;;22.51;66.15;100049.31;5094860;28;8850;-63
2022/07/21 07:44:27;;;;;;;;;16.40;15.40;;;;;22.58;66.61;100041.22;5095166;28;8926;-63
2022/07/21 07:46:55;;;;;;;;;17.40;14.20;;;;;22.52;66.96;100050.16;5094443;28;8833;-63
2022/07/21 07:49:23;;;;;;;;;18.20;16.20;;;;;22.37;67.25;100046.63;5094348;28;8834;-63
2022/07/21 07:51:51;;;;;;;;;17.80;16.20;;;;;22.26;67.27;100047.16;5094231;28;8918;-63
2022/07/21 07:54:19;;;;;;;;;14.20;12.40;;;;;22.22;67.38;100054.84;5094454;28;8965;-63
2022/07/21 07:56:47;;;;;;;;;13.20;11.60;;;;;22.16;67.39;100065.66;5094904;28;8834;-64
2022/07/21 07:59:14;;;;;;;;;15.60;14.00;;;;;22.11;67.80;100068.94;5102931;28;8832;-64
2022/07/21 08:01:42;;;;;;;;;12.80;12.40;;;;;22.07;67.63;100069.50;5117207;28;8820;-64
2022/07/21 08:04:10;;;;;;;;;14.60;14.60;;;;;21.99;68.29;100075.03;5117867;28;8816;-63
2022/07/21 08:06:38;;;;;;;;;15.80;15.40;;;;;21.92;68.42;100082.25;5118065;28;8823;-64
2022/07/21 08:09:06;;;;;;;;;7.60;7.60;;;;;21.86;68.34;100080.34;5117779;28;8975;-63
2022/07/21 08:11:33;;;;;;;;;15.00;14.80;;;;;21.81;68.37;100075.47;5117951;28;8831;-64
2022/07/21 08:14:01;;;;;;;;;10.40;8.80;;;;;21.80;68.72;100079.19;5118153;28;8932;-63
2022/07/21 08:16:29;;;;;;;;;14.20;14.00;;;;;21.82;68.18;100073.59;5118785;28;8828;-63
2022/07/21 08:18:57;;;;;;;;;18.60;16.40;;;;;21.84;68.25;100074.25;5118685;28;8824;-63
2022/07/21 08:21:30;;;;;;;;;11.40;11.00;;;;;21.90;68.08;100071.63;5118079;28;8847;-62
2022/07/21 08:24:18;;;;;;;;;7.00;7.00;;;;;21.97;67.70;100055.41;5118092;28;8828;-64
2022/07/21 08:26:46;;;;;;;;;11.60;11.00;;;;;22.01;67.52;100054.00;5118453;28;8906;-62
2022/07/21 08:29:14;;;;;;;;;12.20;11.40;;;;;22.03;67.29;100065.50;5101819;28;8978;-63
2022/07/21 08:31:42;;;;;;;;;12.40;12.40;;;;;22.06;67.13;100062.38;5096988;28;8834;-63
2022/07/21 08:34:10;;;;;;;;;11.00;11.00;;;;;22.09;67.08;100064.75;5096715;28;8838;-64
2022/07/21 08:36:39;;;;;;;;;10.00;8.20;;;;;22.11;67.14;100063.53;5096882;28;8834;-64
2022/07/21 08:39:07;;;;;;;;;11.80;11.00;;;;;22.17;67.31;100073.56;5096459;28;8845;-62
2022/07/21 08:41:38;;;;;;;;;7.60;7.00;;;;;22.24;67.09;100079.09;5097311;28;8837;-64
2022/07/21 08:44:07;;;;;;;;;11.80;11.00;;;;;22.32;66.45;100076.25;5097220;28;8898;-63
2022/07/21 08:46:35;;;;;;;;;8.40;8.00;;;;;22.42;66.13;100076.78;5097346;28;9631;-64
2022/07/21 08:49:03;;;;;;;;;11.00;10.20;;;;;22.56;66.19;100081.31;5096927;28;8849;-69
2022/07/21 08:51:31;;;;;;;;;11.80;9.80;;;;;22.67;65.75;100083.50;5097136;28;9566;-62
2022/07/21 08:53:58;;;;;;;;;8.40;8.40;;;;;22.81;65.48;100077.13;5097172;28;8883;-63
2022/07/21 08:56:27;;;;;;;;;12.60;12.00;;;;;22.85;65.14;100076.53;5097302;28;8905;-64
2022/07/21 08:58:55;;;;;;;;;4.00;4.00;;;;;22.86;65.00;100077.41;5108128;28;8899;-63
2022/07/21 09:01:24;;;;;;;;;8.60;7.20;;;;;22.83;65.14;100081.34;5117711;28;8898;-64
2022/07/21 09:03:52;;;;;;;;;8.00;6.20;;;;;22.85;65.04;100078.44;5118006;28;9599;-64
2022/07/21 09:06:20;;;;;;;;;6.20;5.60;;;;;22.81;65.48;100078.00;5117745;28;8836;-63
2022/07/21 09:08:48;;;;;;;;;8.00;6.80;;;;;22.86;65.33;100077.41;5116927;28;8840;-63
2022/07/21 09:11:17;;;;;;;;;6.20;5.80;;;;;22.98;64.61;100073.13;5115805;28;8935;-62
2022/07/21 09:13:45;;;;;;;;;6.80;5.00;;;;;23.10;64.67;100072.38;5116502;28;8957;-64
2022/07/21 09:16:13;;;;;;;;;8.20;8.20;;;;;23.22;63.93;100078.94;5116372;28;8836;-64
2022/07/21 09:18:40;;;;;;;;;8.80;8.80;;;;;23.24;64.14;100079.59;5116651;28;8875;-63
2022/07/21 09:21:08;;;;;;;;;9.00;8.60;;;;;23.25;64.09;100083.13;5116310;28;8824;-63
2022/07/21 09:23:36;;;;;;;;;10.80;9.60;;;;;23.30;64.12;100075.22;5116518;28;8832;-64
2022/07/21 09:26:04;;;;;;;;;8.20;8.20;;;;;23.46;63.64;100075.72;5116481;28;8820;-63
2022/07/21 09:28:32;;;;;;;;;5.60;5.60;;;;;23.67;62.63;100074.81;5108441;28;8887;-64
2022/07/21 09:30:59;;;;;;;;;8.00;8.00;;;;;23.76;62.40;100074.41;5095806;28;9579;-63
2022/07/21 09:33:27;;;;;;;;;5.60;5.00;;;;;23.72;62.57;100078.59;5096220;28;8834;-64
2022/07/21 09:35:55;;;;;;;;;7.20;5.60;;;;;23.69;62.97;100075.44;5095369;28;8853;-63
2022/07/21 09:38:23;;;;;;;;;9.00;8.80;;;;;23.74;62.69;100064.78;5095392;28;8960;-62
2022/07/21 09:40:51;;;;;;;;;8.20;8.20;;;;;23.85;62.28;100066.91;5095790;28;8868;-62
2022/07/21 09:43:18;;;;;;;;;8.60;8.40;;;;;24.09;61.21;100058.22;5096034;28;8833;-62
2022/07/21 09:45:46;;;;;;;;;8.60;8.60;;;;;24.27;61.11;100067.50;5096407;28;8830;-62
2022/07/21 09:48:14;;;;;;;;;8.40;8.00;;;;;24.36;60.58;100065.41;5095551;28;8965;-62
2022/07/21 09:50:51;;;;;;;;;6.20;6.20;;;;;24.49;60.92;100060.00;5097336;28;8904;-63
2022/07/21 09:53:19;;;;;;;;;8.80;8.40;;;;;24.53;60.72;100053.94;5095769;28;8826;-63
2022/07/21 09:55:47;;;;;;;;;7.60;7.60;;;;;24.49;60.42;100057.28;5095342;28;8969;-62
2022/07/21 09:58:15;;;;;;;;;8.20;6.40;;;;;24.45;60.30;100061.44;5095213;28;9483;-62
2022/07/21 10:00:43;;;;;;;;;6.20;5.80;;;;;24.42;60.61;100057.25;5095420;28;8858;-63
2022/07/21 10:03:10;;;;;;;;;7.80;7.20;;;;;24.43;60.74;100066.28;5095111;28;8938;-61
2022/07/21 10:05:38;;;;;;;;;6.00;6.00;;;;;24.35;60.38;100075.47;5094908;28;8825;-62
2022/07/21 10:08:07;;;;;;;;;6.00;6.00;;;;;24.29;60.89;100067.28;5095198;28;8842;-63
2022/07/21 10:10:35;;;;;;;;;5.20;3.20;;;;;24.30;60.80;100072.53;5094957;28;8907;-62
2022/07/21 10:13:23;;;;;;;;;8.80;8.60;;;;;24.28;60.58;100066.44;5094893;28;8866;-62
2022/07/21 10:15:50;;;;;;;;;11.40;10.00;;;;;24.34;60.41;100070.25;5094506;28;8849;-63
2022/07/21 10:18:20;;;;;;;;;6.40;5.60;;;;;24.36;60.17;100076.31;5095233;28;9513;-64
2022/07/21 10:20:48;;;;;;;;;6.60;6.60;;;;;24.38;60.17;100075.06;5103064;28;8840;-62
2022/07/21 10:23:16;;;;;;;;;7.60;6.60;;;;;24.42;60.10;100059.16;5113641;28;8831;-65
2022/07/21 10:25:46;;;;;;;;;6.60;6.00;;;;;24.53;59.42;100061.25;5113126;28;8851;-63
2022/07/21 10:28:14;;;;;;;;;9.40;9.00;;;;;24.54;59.58;100062.91;5113937;28;8804;-64
2022/07/21 10:30:42;;;;;;;;;5.80;5.40;;;;;24.48;60.06;100067.31;5123703;27;8898;-64
2022/07/21 10:33:10;;;;;;;;;11.20;10.00;;;;;24.39;59.90;100065.00;5136098;27;8906;-64
2022/07/21 10:35:38;;;;;;;;;9.00;8.00;;;;;24.22;60.27;100069.16;5135506;27;8829;-62
2022/07/21 10:38:11;;;;;;;;;9.00;9.00;;;;;24.08;60.16;100081.91;5135321;27;8825;-63
2022/07/21 10:40:39;;;;;;;;;5.40;5.40;;;;;23.95;60.70;100076.41;5134141;27;8910;-63
2022/07/21 10:43:07;;;;;;;;;9.00;8.00;;;;;23.85;60.93;100072.38;5134821;27;9560;-62
2022/07/21 10:45:35;;;;;;;;;8.80;7.80;;;;;23.85;60.98;100078.66;5134593;27;8833;-63
2022/07/21 10:48:03;;;;;;;;;12.80;10.00;;;;;23.91;60.62;100085.19;5135783;27;8869;-62
2022/07/21 10:50:30;;;;;;;;;15.60;13.80;;;;;23.96;60.51;100088.16;5126608;27;8903;-63
2022/07/21 10:52:58;;;;;;;;;16.00;14.80;;;;;23.98;60.07;100084.16;5115177;28;9493;-63
2022/07/21 10:55:30;;;;;;;;;15.00;14.60;;;;;24.01;59.95;100086.50;5115183;28;8924;-63
2022/07/21 10:57:57;;;;;;;;;17.20;14.80;;;;;24.11;59.96;100083.38;5115174;28;8840;-63
2022/07/21 11:00:27;;;;;;;;;12.60;11.40;;;;;24.24;59.69;100077.94;5114637;28;9729;-64
2022/07/21 11:02:55;;;;;;;;;12.00;11.60;;;;;24.32;59.51;100081.34;5114899;28;8832;-63
2022/07/21 11:05:24;;;;;;;;;14.40;13.80;;;;;24.29;59.29;100098.09;5114534;28;8920;-64
2022/07/21 11:07:54;;;;;;;;;11.80;10.60;;;;;24.24;59.34;100086.97;5115001;28;8908;-63
2022/07/21 11:10:22;;;;;;;;;11.00;10.20;;;;;24.21;59.61;100081.09;5114955;28;8851;-63
2022/07/21 11:12:49;;;;;;;;;10.00;9.00;;;;;24.12;60.19;100087.78;5115046;28;9758;-62
2022/07/21 11:15:17;;;;;;;;;10.00;9.20;;;;;24.03;59.86;100092.56;5114321;28;8828;-63
2022/07/21 11:17:45;;;;;;;;;10.20;10.20;;;;;23.91;60.06;100082.47;5114773;28;8867;-62
2022/07/21 11:20:13;;;;;;;;;14.00;13.60;;;;;23.76;60.99;100079.84;5119790;27;8829;-62
2022/07/21 11:22:44;;;;;;;;;12.00;10.60;;;;;23.65;60.84;100076.88;5134843;27;8841;-62
2022/07/21 11:25:13;;;;;;;;;10.60;9.80;;;;;23.59;61.23;100074.97;5134450;27;8852;-63
2022/07/21 11:27:43;;;;;;;;;8.40;4.00;;;;;23.50;61.80;100076.16;5134630;27;8837;-64
2022/07/21 11:30:10;;;;;;;;;11.60;10.80;;;;;23.40;61.59;100079.28;5111356;28;8854;-62
2022/07/21 11:32:38;;;;;;;;;17.40;16.20;;;;;23.35;61.87;100081.75;5094783;28;8907;-62